Time,TemperatureF,DewpointF,PressureIn,WindDirection,WindDirectionDegrees,WindSpeedMPH,WindSpeedGustMPH,Humidity,HourlyPrecipIn,Conditions,Clouds,dailyrainin,SoftwareType,DateUTC
2013-08-21 00:04:00,66.7,50.1,29.77,North,0,0.0,0.0,55,0.00,,---,0.00,VWS V13.01,2013-08-21 04:04:00,
2013-08-21 00:09:00,66.7,50.1,29.77,North,0,0.0,0.0,55,0.00,,---,0.00,VWS V13.01,2013-08-21 04:09:00,
2013-08-21 00:14:00,66.6,49.9,29.80,North,0,0.0,0.0,55,0.00,,---,0.00,VWS V13.01,2013-08-21 04:14:00,
2013-08-21 00:19:00,66.6,49.9,29.80,North,0,0.0,0.0,55,0.00,,---,0.00,VWS V13.01,2013-08-21 04:19:00,
2013-08-21 00:24:00,66.4,50.2,29.80,North,0,0.0,0.0,56,0.00,,---,0.00,VWS V13.01,2013-08-21 04:24:00,
2013-08-21 00:29:00,66.2,50.1,29.80,North,0,0.0,0.0,56,0.00,,---,0.00,VWS V13.01,2013-08-21 04:29:00,
2013-08-21 00:34:00,66.2,50.1,29.80,North,0,0.0,0.0,56,0.00,,---,0.00,VWS V13.01,2013-08-21 04:34:00,
2013-08-21 00:39:00,66.2,50.1,29.80,North,0,0.0,0.0,56,0.00,,---,0.00,VWS V13.01,2013-08-21 04:39:00,
2013-08-21 00:44:00,66.0,50.4,29.80,North,0,0.0,0.0,57,0.00,,---,0.00,VWS V13.01,2013-08-21 04:44:00,
2013-08-21 00:49:00,66.0,50.4,29.80,North,0,0.0,0.0,57,0.00,,---,0.00,VWS V13.01,2013-08-21 04:49:00,
2013-08-21 00:54:00,65.8,50.2,29.80,North,0,0.0,0.0,57,0.00,,---,0.00,VWS V13.01,2013-08-21 04:54:00,
2013-08-21 00:59:00,65.7,50.5,29.80,North,0,0.0,0.0,58,0.00,,---,0.00,VWS V13.01,2013-08-21 04:59:00,
2013-08-21 01:04:00,65.7,50.5,29.80,North,0,0.0,0.0,58,0.00,,---,0.00,VWS V13.01,2013-08-21 05:04:00,
2013-08-21 01:10:00,65.7,50.5,29.80,North,0,0.0,0.0,58,0.00,,---,0.00,VWS V13.01,2013-08-21 05:10:00,
2013-08-21 01:14:00,65.7,51.0,29.77,North,0,0.0,0.0,59,0.00,,---,0.00,VWS V13.01,2013-08-21 05:14:00,
2013-08-21 01:19:00,65.5,50.8,29.77,North,0,0.0,0.0,59,0.00,,---,0.00,VWS V13.01,2013-08-21 05:19:00,
2013-08-21 01:24:00,65.5,50.8,29.77,North,0,0.0,0.0,59,0.00,,---,0.00,VWS V13.01,2013-08-21 05:24:00,
2013-08-21 01:29:00,65.3,50.6,29.80,North,0,0.0,0.0,59,0.00,,---,0.00,VWS V13.01,2013-08-21 05:29:00,
2013-08-21 01:34:00,65.1,50.9,29.80,North,0,0.0,0.0,60,0.00,,---,0.00,VWS V13.01,2013-08-21 05:34:00,
2013-08-21 01:39:00,65.1,50.9,29.80,North,0,0.0,0.0,60,0.00,,---,0.00,VWS V13.01,2013-08-21 05:39:00,
2013-08-21 01:44:00,65.1,50.9,29.77,North,0,0.0,0.0,60,0.00,,---,0.00,VWS V13.01,2013-08-21 05:44:00,
2013-08-21 01:49:00,64.8,51.0,29.77,North,0,0.0,0.0,61,0.00,,---,0.00,VWS V13.01,2013-08-21 05:49:00,
2013-08-21 01:54:00,64.4,51.1,29.77,North,0,0.0,0.0,62,0.00,,---,0.00,VWS V13.01,2013-08-21 05:54:00,
2013-08-21 02:00:00,64.2,51.8,29.77,North,0,0.0,0.0,64,0.00,,---,0.00,VWS V13.01,2013-08-21 06:00:00,
2013-08-21 02:04:00,64.2,52.2,29.77,North,0,0.0,0.0,65,0.00,,---,0.00,VWS V13.01,2013-08-21 06:04:00,
2013-08-21 02:09:00,64.2,52.2,29.77,North,0,0.0,0.0,65,0.00,,---,0.00,VWS V13.01,2013-08-21 06:09:00,
2013-08-21 02:14:00,64.2,52.2,29.77,North,0,0.0,0.0,65,0.00,,---,0.00,VWS V13.01,2013-08-21 06:14:00,
2013-08-21 02:19:00,64.2,52.2,29.77,North,0,0.0,0.0,65,0.00,,---,0.00,VWS V13.01,2013-08-21 06:19:00,
2013-08-21 02:29:00,64.2,52.6,29.77,North,0,0.0,0.0,66,0.00,,---,0.00,VWS V13.01,2013-08-21 06:29:00,
2013-08-21 02:40:00,63.7,52.9,29.77,North,0,0.0,0.0,68,0.00,,---,0.00,VWS V13.01,2013-08-21 06:40:00,
2013-08-21 02:54:00,63.7,52.9,29.77,North,0,0.0,0.0,68,0.00,,---,0.00,VWS V13.01,2013-08-21 06:54:00,
2013-08-21 02:59:00,63.7,53.3,29.77,North,0,0.0,0.0,69,0.00,,---,0.00,VWS V13.01,2013-08-21 06:59:00,
2013-08-21 03:04:00,63.7,52.9,29.77,North,0,0.0,0.0,68,0.00,,---,0.00,VWS V13.01,2013-08-21 07:04:00,
2013-08-21 03:30:00,63.3,53.0,29.77,North,0,0.0,0.0,69,0.00,,---,0.00,VWS V13.01,2013-08-21 07:30:00,
2013-08-21 03:39:00,63.5,53.5,29.77,North,0,0.0,0.0,70,0.00,,---,0.00,VWS V13.01,2013-08-21 07:39:00,
2013-08-21 03:44:00,63.3,53.4,29.77,North,0,0.0,0.0,70,0.00,,---,0.00,VWS V13.01,2013-08-21 07:44:00,
2013-08-21 03:49:00,63.3,53.0,29.77,North,0,0.0,0.0,69,0.00,,---,0.00,VWS V13.01,2013-08-21 07:49:00,
2013-08-21 03:54:00,63.1,52.8,29.77,North,0,0.0,0.0,69,0.00,,---,0.00,VWS V13.01,2013-08-21 07:54:00,
2013-08-21 03:59:00,63.1,52.8,29.77,North,0,0.0,0.0,69,0.00,,---,0.00,VWS V13.01,2013-08-21 07:59:00,
2013-08-21 04:09:00,63.0,53.4,29.77,North,0,0.0,0.0,71,0.00,,---,0.00,VWS V13.01,2013-08-21 08:09:00,
2013-08-21 04:14:00,63.0,53.4,29.77,North,0,0.0,0.0,71,0.00,,---,0.00,VWS V13.01,2013-08-21 08:14:00,
2013-08-21 04:19:00,63.0,53.4,29.77,North,0,0.0,0.0,71,0.00,,---,0.00,VWS V13.01,2013-08-21 08:19:00,
2013-08-21 04:24:00,63.0,53.8,29.77,North,0,0.0,0.0,72,0.00,,---,0.00,VWS V13.01,2013-08-21 08:24:00,
2013-08-21 04:29:00,63.0,53.8,29.77,North,0,0.0,0.0,72,0.00,,---,0.00,VWS V13.01,2013-08-21 08:29:00,
2013-08-21 04:34:00,63.0,53.8,29.77,North,0,0.0,0.0,72,0.00,,---,0.00,VWS V13.01,2013-08-21 08:34:00,
2013-08-21 04:39:00,63.0,53.8,29.77,North,0,0.0,0.0,72,0.00,,---,0.00,VWS V13.01,2013-08-21 08:39:00,
2013-08-21 04:44:00,63.0,54.2,29.77,North,0,0.0,0.0,73,0.00,,---,0.00,VWS V13.01,2013-08-21 08:44:00,
2013-08-21 04:49:00,62.8,53.6,29.77,North,0,0.0,0.0,72,0.00,,---,0.00,VWS V13.01,2013-08-21 08:49:00,
2013-08-21 04:54:00,62.6,53.5,29.77,North,0,0.0,0.0,72,0.00,,---,0.00,VWS V13.01,2013-08-21 08:54:00,
2013-08-21 04:59:00,62.6,53.1,29.80,North,0,0.0,0.0,71,0.00,,---,0.00,VWS V13.01,2013-08-21 08:59:00,
2013-08-21 05:04:00,62.6,53.1,29.80,North,0,0.0,0.0,71,0.00,,---,0.00,VWS V13.01,2013-08-21 09:04:00,
2013-08-21 05:14:00,62.4,52.9,29.80,North,0,0.0,0.0,71,0.00,,---,0.00,VWS V13.01,2013-08-21 09:14:00,
2013-08-21 05:19:00,62.4,52.9,29.80,North,0,0.0,0.0,71,0.00,,---,0.00,VWS V13.01,2013-08-21 09:19:00,
2013-08-21 05:29:00,62.6,53.5,29.80,North,0,0.0,0.0,72,0.00,,---,0.00,VWS V13.01,2013-08-21 09:29:00,
2013-08-21 05:39:00,62.6,53.1,29.80,North,0,0.0,0.0,71,0.00,,---,0.00,VWS V13.01,2013-08-21 09:39:00,
2013-08-21 05:44:00,62.6,53.1,29.80,North,0,0.0,0.0,71,0.00,,---,0.00,VWS V13.01,2013-08-21 09:44:00,
2013-08-21 05:54:00,62.4,52.9,29.80,North,0,0.0,0.0,71,0.00,,---,0.00,VWS V13.01,2013-08-21 09:54:00,
2013-08-21 05:59:00,62.4,52.9,29.80,North,0,0.0,0.0,71,0.00,,---,0.00,VWS V13.01,2013-08-21 09:59:00,
2013-08-21 06:04:00,62.4,52.9,29.80,North,0,0.0,0.0,71,0.00,,---,0.00,VWS V13.01,2013-08-21 10:04:00,
2013-08-21 06:09:00,62.2,52.3,29.80,North,0,0.0,0.0,70,0.00,,---,0.00,VWS V13.01,2013-08-21 10:09:00,
2013-08-21 06:14:00,62.2,52.3,29.80,North,0,0.0,0.0,70,0.00,,---,0.00,VWS V13.01,2013-08-21 10:14:00,
2013-08-21 06:19:00,62.2,52.7,29.80,North,0,0.0,0.0,71,0.00,,---,0.00,VWS V13.01,2013-08-21 10:19:00,
2013-08-21 06:24:00,62.4,52.9,29.80,North,0,0.0,0.0,71,0.00,,---,0.00,VWS V13.01,2013-08-21 10:24:00,
2013-08-21 06:34:00,62.6,53.5,29.80,North,0,0.0,0.0,72,0.00,,---,0.00,VWS V13.01,2013-08-21 10:34:00,
2013-08-21 06:44:00,63.0,53.8,29.80,North,0,0.0,0.0,72,0.00,,---,0.00,VWS V13.01,2013-08-21 10:44:00,
2013-08-21 06:49:00,63.1,55.1,29.80,North,0,0.0,0.0,75,0.00,,---,0.00,VWS V13.01,2013-08-21 10:49:00,
2013-08-21 06:54:00,63.3,55.6,29.80,North,0,0.0,0.0,76,0.00,,---,0.00,VWS V13.01,2013-08-21 10:54:00,
2013-08-21 06:59:00,63.9,56.5,29.80,North,0,0.0,0.0,77,0.00,,---,0.00,VWS V13.01,2013-08-21 10:59:00,
2013-08-21 07:04:00,64.4,56.7,29.80,North,0,0.0,0.0,76,0.00,,---,0.00,VWS V13.01,2013-08-21 11:04:00,
2013-08-21 07:14:00,65.5,55.5,29.80,North,0,0.0,0.0,70,0.00,,---,0.00,VWS V13.01,2013-08-21 11:14:00,
2013-08-21 07:19:00,66.0,54.3,29.80,North,0,0.0,0.0,66,0.00,,---,0.00,VWS V13.01,2013-08-21 11:19:00,
2013-08-21 07:25:00,66.4,53.4,29.80,North,0,0.0,0.0,63,0.00,,---,0.00,VWS V13.01,2013-08-21 11:25:00,
2013-08-21 07:29:00,66.4,53.4,29.80,North,0,0.0,0.0,63,0.00,,---,0.00,VWS V13.01,2013-08-21 11:29:00,
2013-08-21 07:39:00,67.5,53.6,29.80,North,0,0.0,0.0,61,0.00,,---,0.00,VWS V13.01,2013-08-21 11:39:00,
2013-08-21 07:44:00,67.8,52.5,29.80,North,0,0.0,0.0,58,0.00,,---,0.00,VWS V13.01,2013-08-21 11:44:00,
2013-08-21 07:49:00,68.2,52.9,29.80,North,0,0.0,0.0,58,0.00,,---,0.00,VWS V13.01,2013-08-21 11:49:00,
2013-08-21 07:54:00,68.5,52.7,29.80,North,0,0.0,0.0,57,0.00,,---,0.00,VWS V13.01,2013-08-21 11:54:00,
2013-08-21 07:59:00,69.1,51.8,29.80,North,0,0.0,0.0,54,0.00,,---,0.00,VWS V13.01,2013-08-21 11:59:00,
2013-08-21 08:04:00,69.4,51.6,29.80,North,0,0.0,0.0,53,0.00,,---,0.00,VWS V13.01,2013-08-21 12:04:00,
2013-08-21 08:09:00,70.0,50.5,29.80,North,0,0.0,0.0,50,0.00,,---,0.00,VWS V13.01,2013-08-21 12:09:00,
2013-08-21 08:14:00,70.3,50.8,29.80,North,0,0.0,0.0,50,0.00,,---,0.00,VWS V13.01,2013-08-21 12:14:00,
2013-08-21 08:24:00,70.9,50.2,29.80,North,0,0.0,0.0,48,0.00,,---,0.00,VWS V13.01,2013-08-21 12:24:00,
2013-08-21 08:29:00,71.4,49.6,29.80,North,0,0.0,0.0,46,0.00,,---,0.00,VWS V13.01,2013-08-21 12:29:00,
2013-08-21 08:34:00,72.0,50.1,29.80,North,0,0.0,0.0,46,0.00,,---,0.00,VWS V13.01,2013-08-21 12:34:00,
2013-08-21 08:39:00,72.1,49.0,29.80,North,0,0.0,0.0,44,0.00,,---,0.00,VWS V13.01,2013-08-21 12:39:00,
2013-08-21 08:49:00,73.0,49.9,29.83,North,0,0.0,0.0,44,0.00,,---,0.00,VWS V13.01,2013-08-21 12:49:00,
2013-08-21 08:54:00,73.4,49.6,29.83,North,0,0.0,0.0,43,0.00,,---,0.00,VWS V13.01,2013-08-21 12:54:00,
2013-08-21 09:00:00,73.4,48.9,29.80,North,0,0.0,0.0,42,0.00,,---,0.00,VWS V13.01,2013-08-21 13:00:00,
2013-08-21 09:04:00,74.1,48.9,29.80,North,0,0.0,0.0,41,0.00,,---,0.00,VWS V13.01,2013-08-21 13:04:00,
2013-08-21 09:09:00,74.1,48.3,29.80,North,0,0.0,0.0,40,0.00,,---,0.00,VWS V13.01,2013-08-21 13:09:00,
2013-08-21 09:14:00,74.3,47.8,29.80,North,0,0.0,0.0,39,0.00,,---,0.00,VWS V13.01,2013-08-21 13:14:00,
2013-08-21 09:19:00,74.5,48.6,29.80,North,0,0.0,0.0,40,0.00,,---,0.00,VWS V13.01,2013-08-21 13:19:00,
2013-08-21 09:24:00,75.0,48.4,29.80,North,0,0.0,0.0,39,0.00,,---,0.00,VWS V13.01,2013-08-21 13:24:00,
2013-08-21 09:34:00,75.9,49.9,29.80,North,0,0.0,0.0,40,0.00,,---,0.00,VWS V13.01,2013-08-21 13:34:00,
2013-08-21 09:39:00,76.6,47.7,29.80,North,0,0.0,0.0,36,0.00,,---,0.00,VWS V13.01,2013-08-21 13:39:00,
2013-08-21 09:49:00,77.0,46.5,29.80,North,0,0.0,0.0,34,0.00,,---,0.00,VWS V13.01,2013-08-21 13:49:00,
2013-08-21 09:59:00,77.7,47.1,29.80,North,0,0.0,0.0,34,0.00,,---,0.00,VWS V13.01,2013-08-21 13:59:00,
2013-08-21 10:04:00,78.3,47.6,29.80,North,0,0.0,0.0,34,0.00,,---,0.00,VWS V13.01,2013-08-21 14:04:00,
2013-08-21 10:09:00,78.8,48.1,29.80,North,0,0.0,0.0,34,0.00,,---,0.00,VWS V13.01,2013-08-21 14:09:00,
2013-08-21 10:14:00,79.3,46.1,29.80,North,0,0.0,0.0,31,0.00,,---,0.00,VWS V13.01,2013-08-21 14:14:00,
2013-08-21 10:19:00,79.7,46.4,29.80,North,0,0.0,0.0,31,0.00,,---,0.00,VWS V13.01,2013-08-21 14:19:00,
2013-08-21 10:24:00,80.1,45.9,29.80,North,0,0.0,0.0,30,0.00,,---,0.00,VWS V13.01,2013-08-21 14:24:00,
2013-08-21 10:29:00,80.4,43.4,29.83,North,0,0.0,0.0,27,0.00,,---,0.00,VWS V13.01,2013-08-21 14:29:00,
2013-08-21 10:34:00,80.6,40.5,29.83,North,0,0.0,0.0,24,0.00,,---,0.00,VWS V13.01,2013-08-21 14:34:00,
2013-08-21 10:39:00,80.8,38.4,29.83,North,0,0.0,0.0,22,0.00,,---,0.00,VWS V13.01,2013-08-21 14:39:00,
2013-08-21 10:44:00,80.8,38.4,29.83,North,0,0.0,0.0,22,0.00,,---,0.00,VWS V13.01,2013-08-21 14:44:00,
2013-08-21 10:49:00,81.1,38.7,29.83,North,0,0.0,0.0,22,0.00,,---,0.00,VWS V13.01,2013-08-21 14:49:00,
2013-08-21 10:54:00,81.5,36.6,29.83,North,0,0.0,0.0,20,0.00,,---,0.00,VWS V13.01,2013-08-21 14:54:00,
2013-08-21 10:59:00,81.5,36.6,29.80,North,0,0.0,0.0,20,0.00,,---,0.00,VWS V13.01,2013-08-21 14:59:00,
2013-08-21 11:04:00,81.7,36.8,29.80,North,0,0.0,0.0,20,0.00,,---,0.00,VWS V13.01,2013-08-21 15:04:00,
2013-08-21 11:09:00,81.7,36.8,29.80,North,0,0.0,0.0,20,0.00,,---,0.00,VWS V13.01,2013-08-21 15:09:00,
2013-08-21 11:14:00,82.0,37.0,29.83,North,0,0.0,0.0,20,0.00,,---,0.00,VWS V13.01,2013-08-21 15:14:00,
2013-08-21 11:19:00,82.4,37.3,29.83,North,0,0.0,0.0,20,0.00,,---,0.00,VWS V13.01,2013-08-21 15:19:00,
2013-08-21 11:29:00,83.1,37.9,29.80,North,0,0.0,0.0,20,0.00,,---,0.00,VWS V13.01,2013-08-21 15:29:00,
2013-08-21 11:35:00,83.1,36.6,29.80,North,0,0.0,0.0,19,0.00,,---,0.00,VWS V13.01,2013-08-21 15:35:00,
2013-08-21 11:39:00,82.8,36.3,29.80,North,0,0.0,0.0,19,0.00,,---,0.00,VWS V13.01,2013-08-21 15:39:00,
2013-08-21 11:49:00,82.8,36.3,29.80,North,0,0.0,0.0,19,0.00,,---,0.00,VWS V13.01,2013-08-21 15:49:00,
2013-08-21 11:59:00,83.3,36.8,29.83,North,0,0.0,0.0,19,0.00,,---,0.00,VWS V13.01,2013-08-21 15:59:00,
2013-08-21 12:04:00,82.8,36.3,29.83,North,0,0.0,0.0,19,0.00,,---,0.00,VWS V13.01,2013-08-21 16:04:00,
2013-08-21 12:09:00,83.3,36.8,29.83,North,0,0.0,0.0,19,0.00,,---,0.00,VWS V13.01,2013-08-21 16:09:00,
2013-08-21 12:14:00,83.5,36.9,29.80,North,0,0.0,0.0,19,0.00,,---,0.00,VWS V13.01,2013-08-21 16:14:00,
2013-08-21 12:19:00,83.3,36.8,29.80,North,0,0.0,0.0,19,0.00,,---,0.00,VWS V13.01,2013-08-21 16:19:00,
2013-08-21 12:24:00,83.1,36.6,29.80,North,0,0.0,0.0,19,0.00,,---,0.00,VWS V13.01,2013-08-21 16:24:00,
2013-08-21 12:29:00,83.7,37.1,29.80,North,0,0.0,0.0,19,0.00,,---,0.00,VWS V13.01,2013-08-21 16:29:00,
2013-08-21 12:34:00,84.2,36.2,29.80,North,0,0.0,0.0,18,0.00,,---,0.00,VWS V13.01,2013-08-21 16:34:00,
2013-08-21 12:39:00,84.2,36.2,29.80,North,0,0.0,0.0,18,0.00,,---,0.00,VWS V13.01,2013-08-21 16:39:00,
2013-08-21 12:44:00,84.6,36.4,29.80,North,0,0.0,0.0,18,0.00,,---,0.00,VWS V13.01,2013-08-21 16:44:00,
2013-08-21 12:49:00,85.1,36.9,29.80,North,0,0.0,0.0,18,0.00,,---,0.00,VWS V13.01,2013-08-21 16:49:00,
2013-08-21 12:54:00,85.1,33.9,29.80,North,0,0.0,0.0,16,0.00,,---,0.00,VWS V13.01,2013-08-21 16:54:00,
2013-08-21 13:04:00,83.8,32.9,29.80,North,0,0.0,0.0,16,0.00,,---,0.00,VWS V13.01,2013-08-21 17:04:00,
2013-08-21 13:09:00,84.2,33.2,29.80,North,0,0.0,0.0,16,0.00,,---,0.00,VWS V13.01,2013-08-21 17:09:00,
2013-08-21 13:14:00,84.9,33.8,29.80,North,0,0.0,0.0,16,0.00,,---,0.00,VWS V13.01,2013-08-21 17:14:00,
2013-08-21 13:19:00,85.8,37.5,29.80,North,0,0.0,0.0,18,0.00,,---,0.00,VWS V13.01,2013-08-21 17:19:00,
2013-08-21 13:24:00,86.4,34.9,29.80,North,0,0.0,0.0,16,0.00,,---,0.00,VWS V13.01,2013-08-21 17:24:00,
2013-08-21 13:29:00,86.5,35.1,29.77,North,0,0.0,0.0,16,0.00,,---,0.00,VWS V13.01,2013-08-21 17:29:00,
2013-08-21 13:34:00,86.7,35.2,29.77,North,0,0.0,0.0,16,0.00,,---,0.00,VWS V13.01,2013-08-21 17:34:00,
2013-08-21 13:39:00,87.1,35.5,29.77,North,0,0.0,0.0,16,0.00,,---,0.00,VWS V13.01,2013-08-21 17:39:00,
2013-08-21 13:44:00,86.9,35.3,29.77,North,0,0.0,0.0,16,0.00,,---,0.00,VWS V13.01,2013-08-21 17:44:00,
2013-08-21 13:49:00,87.3,35.6,29.77,North,0,0.0,0.0,16,0.00,,---,0.00,VWS V13.01,2013-08-21 17:49:00,
2013-08-21 13:54:00,87.6,35.9,29.77,North,0,0.0,0.0,16,0.00,,---,0.00,VWS V13.01,2013-08-21 17:54:00,
2013-08-21 13:59:00,87.6,35.9,29.77,North,0,0.0,0.0,16,0.00,,---,0.00,VWS V13.01,2013-08-21 17:59:00,
2013-08-21 14:04:00,87.4,35.8,29.77,North,0,0.0,0.0,16,0.00,,---,0.00,VWS V13.01,2013-08-21 18:04:00,
2013-08-21 14:09:00,86.5,35.1,29.77,North,0,0.0,0.0,16,0.00,,---,0.00,VWS V13.01,2013-08-21 18:09:00,
2013-08-21 14:14:00,86.5,35.1,29.77,North,0,0.0,0.0,16,0.00,,---,0.00,VWS V13.01,2013-08-21 18:14:00,
2013-08-21 14:19:00,87.3,35.6,29.77,North,0,0.0,0.0,16,0.00,,---,0.00,VWS V13.01,2013-08-21 18:19:00,
2013-08-21 14:24:00,87.1,35.5,29.77,North,0,0.0,0.0,16,0.00,,---,0.00,VWS V13.01,2013-08-21 18:24:00,
2013-08-21 14:29:00,87.1,35.5,29.77,North,0,0.0,0.0,16,0.00,,---,0.00,VWS V13.01,2013-08-21 18:29:00,
2013-08-21 14:34:00,88.0,34.6,29.77,North,0,0.0,0.0,15,0.00,,---,0.00,VWS V13.01,2013-08-21 18:34:00,
2013-08-21 14:39:00,88.5,35.0,29.77,North,0,0.0,0.0,15,0.00,,---,0.00,VWS V13.01,2013-08-21 18:39:00,
2013-08-21 14:44:00,88.5,35.0,29.77,North,0,0.0,0.0,15,0.00,,---,0.00,VWS V13.01,2013-08-21 18:44:00,
2013-08-21 14:49:00,89.1,35.5,29.77,North,0,0.0,0.0,15,0.00,,---,0.00,VWS V13.01,2013-08-21 18:49:00,
2013-08-21 14:54:00,88.3,34.9,29.77,North,0,0.0,0.0,15,0.00,,---,0.00,VWS V13.01,2013-08-21 18:54:00,
2013-08-21 14:59:00,87.1,35.5,29.77,North,0,0.0,0.0,16,0.00,,---,0.00,VWS V13.01,2013-08-21 18:59:00,
2013-08-21 15:04:00,87.8,34.5,29.77,North,0,0.0,0.0,15,0.00,,---,0.00,VWS V13.01,2013-08-21 19:04:00,
2013-08-21 15:09:00,88.9,35.3,29.77,North,0,0.0,0.0,15,0.00,,---,0.00,VWS V13.01,2013-08-21 19:09:00,
2013-08-21 15:14:00,89.4,32.2,29.74,North,0,0.0,0.0,13,0.00,,---,0.00,VWS V13.01,2013-08-21 19:14:00,
2013-08-21 15:24:00,88.3,31.3,29.74,North,0,0.0,0.0,13,0.00,,---,0.00,VWS V13.01,2013-08-21 19:24:00,
2013-08-21 15:34:00,88.3,31.3,29.74,North,0,0.0,0.0,13,0.00,,---,0.00,VWS V13.01,2013-08-21 19:34:00,
2013-08-21 15:39:00,89.2,32.0,29.74,North,0,0.0,0.0,13,0.00,,---,0.00,VWS V13.01,2013-08-21 19:39:00,
2013-08-21 15:44:00,89.8,30.5,29.74,North,0,0.0,0.0,12,0.00,,---,0.00,VWS V13.01,2013-08-21 19:44:00,
2013-08-21 15:49:00,90.5,31.0,29.74,North,0,0.0,0.0,12,0.00,,---,0.00,VWS V13.01,2013-08-21 19:49:00,
2013-08-21 15:54:00,89.8,30.5,29.74,North,0,0.0,0.0,12,0.00,,---,0.00,VWS V13.01,2013-08-21 19:54:00,
2013-08-21 15:59:00,89.8,30.5,29.74,North,0,0.0,0.0,12,0.00,,---,0.00,VWS V13.01,2013-08-21 19:59:00,
2013-08-21 16:04:00,90.3,30.9,29.74,North,0,0.0,0.0,12,0.00,,---,0.00,VWS V13.01,2013-08-21 20:04:00,
2013-08-21 16:09:00,91.4,31.7,29.74,North,0,0.0,0.0,12,0.00,,---,0.00,VWS V13.01,2013-08-21 20:09:00,
2013-08-21 16:19:00,92.8,32.8,29.74,North,0,0.0,0.0,12,0.00,,---,0.00,VWS V13.01,2013-08-21 20:19:00,
2013-08-21 16:24:00,93.6,31.2,29.74,North,0,0.0,0.0,11,0.00,,---,0.00,VWS V13.01,2013-08-21 20:24:00,
2013-08-21 16:29:00,94.3,31.8,29.74,North,0,0.0,0.0,11,0.00,,---,0.00,VWS V13.01,2013-08-21 20:29:00,
2013-08-21 16:39:00,93.6,31.2,29.74,North,0,0.0,0.0,11,0.00,,---,0.00,VWS V13.01,2013-08-21 20:39:00,
2013-08-21 16:44:00,93.9,31.5,29.71,North,0,0.0,0.0,11,0.00,,---,0.00,VWS V13.01,2013-08-21 20:44:00,
2013-08-21 16:49:00,92.7,32.7,29.71,North,0,0.0,0.0,12,0.00,,---,0.00,VWS V13.01,2013-08-21 20:49:00,
2013-08-21 16:54:00,94.3,31.8,29.71,North,0,0.0,0.0,11,0.00,,---,0.00,VWS V13.01,2013-08-21 20:54:00,
2013-08-21 16:59:00,94.1,31.6,29.71,North,0,0.0,0.0,11,0.00,,---,0.00,VWS V13.01,2013-08-21 20:59:00,
2013-08-21 17:04:00,94.1,31.6,29.71,North,0,0.0,0.0,11,0.00,,---,0.00,VWS V13.01,2013-08-21 21:04:00,
2013-08-21 17:09:00,92.5,32.5,29.71,North,0,0.0,0.0,12,0.00,,---,0.00,VWS V13.01,2013-08-21 21:09:00,
2013-08-21 17:14:00,90.1,30.7,29.74,North,0,0.0,0.0,12,0.00,,---,0.00,VWS V13.01,2013-08-21 21:14:00,
2013-08-21 17:19:00,91.2,31.6,29.74,North,0,0.0,0.0,12,0.00,,---,0.00,VWS V13.01,2013-08-21 21:19:00,
2013-08-21 17:24:00,90.7,31.2,29.74,North,0,0.0,0.0,12,0.00,,---,0.00,VWS V13.01,2013-08-21 21:24:00,
2013-08-21 17:29:00,91.2,31.6,29.74,North,0,0.0,0.0,12,0.00,,---,0.00,VWS V13.01,2013-08-21 21:29:00,
2013-08-21 17:34:00,90.3,30.9,29.74,North,0,0.0,0.0,12,0.00,,---,0.00,VWS V13.01,2013-08-21 21:34:00,
2013-08-21 17:39:00,89.6,35.9,29.74,North,0,0.0,0.0,15,0.00,,---,0.00,VWS V13.01,2013-08-21 21:39:00,
2013-08-21 17:44:00,90.3,36.5,29.74,North,0,0.0,0.0,15,0.00,,---,0.00,VWS V13.01,2013-08-21 21:44:00,
2013-08-21 17:54:00,90.9,36.9,29.74,North,0,0.0,0.0,15,0.00,,---,0.00,VWS V13.01,2013-08-21 21:54:00,
2013-08-21 17:59:00,90.7,36.7,29.74,North,0,0.0,0.0,15,0.00,,---,0.00,VWS V13.01,2013-08-21 21:59:00,
2013-08-21 18:04:00,90.0,36.2,29.74,North,0,0.0,0.0,15,0.00,,---,0.00,VWS V13.01,2013-08-21 22:04:00,
2013-08-21 18:14:00,87.1,38.5,29.74,North,0,0.0,0.0,18,0.00,,---,0.00,VWS V13.01,2013-08-21 22:14:00,
2013-08-21 18:19:00,85.8,38.8,29.74,North,0,0.0,0.0,19,0.00,,---,0.00,VWS V13.01,2013-08-21 22:19:00,
2013-08-21 18:29:00,84.0,39.9,29.74,North,0,0.0,0.0,21,0.00,,---,0.00,VWS V13.01,2013-08-21 22:29:00,
2013-08-21 18:34:00,83.3,39.3,29.74,North,0,0.0,0.0,21,0.00,,---,0.00,VWS V13.01,2013-08-21 22:34:00,
2013-08-21 18:44:00,82.6,42.2,29.71,North,0,0.0,0.0,24,0.00,,---,0.00,VWS V13.01,2013-08-21 22:44:00,
2013-08-21 18:49:00,82.2,44.0,29.71,North,0,0.0,0.0,26,0.00,,---,0.00,VWS V13.01,2013-08-21 22:49:00,
2013-08-21 18:54:00,81.9,44.6,29.71,North,0,0.0,0.0,27,0.00,,---,0.00,VWS V13.01,2013-08-21 22:54:00,
2013-08-21 18:59:00,81.5,45.3,29.74,North,0,0.0,0.0,28,0.00,,---,0.00,VWS V13.01,2013-08-21 22:59:00,
2013-08-21 19:04:00,81.1,45.9,29.74,North,0,0.0,0.0,29,0.00,,---,0.00,VWS V13.01,2013-08-21 23:04:00,
2013-08-21 19:10:00,80.8,45.6,29.74,North,0,0.0,0.0,29,0.00,,---,0.00,VWS V13.01,2013-08-21 23:10:00,
2013-08-21 19:14:00,80.4,46.2,29.74,North,0,0.0,0.0,30,0.00,,---,0.00,VWS V13.01,2013-08-21 23:14:00,
2013-08-21 19:19:00,80.1,45.9,29.74,North,0,0.0,0.0,30,0.00,,---,0.00,VWS V13.01,2013-08-21 23:19:00,
2013-08-21 19:24:00,79.7,45.6,29.74,North,0,0.0,0.0,30,0.00,,---,0.00,VWS V13.01,2013-08-21 23:24:00,
2013-08-21 19:29:00,79.2,45.1,29.74,North,0,0.0,0.0,30,0.00,,---,0.00,VWS V13.01,2013-08-21 23:29:00,
2013-08-21 19:34:00,78.8,45.6,29.74,North,0,0.0,0.0,31,0.00,,---,0.00,VWS V13.01,2013-08-21 23:34:00,
2013-08-21 19:39:00,78.3,45.2,29.74,North,0,0.0,0.0,31,0.00,,---,0.00,VWS V13.01,2013-08-21 23:39:00,
2013-08-21 19:44:00,77.9,45.7,29.74,North,0,0.0,0.0,32,0.00,,---,0.00,VWS V13.01,2013-08-21 23:44:00,
2013-08-21 19:49:00,77.5,45.4,29.74,North,0,0.0,0.0,32,0.00,,---,0.00,VWS V13.01,2013-08-21 23:49:00,
2013-08-21 19:54:00,77.2,45.1,29.74,North,0,0.0,0.0,32,0.00,,---,0.00,VWS V13.01,2013-08-21 23:54:00,
2013-08-21 19:59:00,76.8,45.6,29.74,North,0,0.0,0.0,33,0.00,,---,0.00,VWS V13.01,2013-08-21 23:59:00,
2013-08-21 20:04:00,76.5,45.2,29.74,North,0,0.0,0.0,33,0.00,,---,0.00,VWS V13.01,2013-08-22 00:04:00,
2013-08-21 20:14:00,76.1,45.7,29.74,North,0,0.0,0.0,34,0.00,,---,0.00,VWS V13.01,2013-08-22 00:14:00,
2013-08-21 20:19:00,75.7,45.4,29.74,North,0,0.0,0.0,34,0.00,,---,0.00,VWS V13.01,2013-08-22 00:19:00,
2013-08-21 20:24:00,75.6,45.2,29.74,North,0,0.0,0.0,34,0.00,,---,0.00,VWS V13.01,2013-08-22 00:24:00,
2013-08-21 20:29:00,75.4,45.1,29.74,North,0,0.0,0.0,34,0.00,,---,0.00,VWS V13.01,2013-08-22 00:29:00,
2013-08-21 20:34:00,75.0,45.5,29.74,North,0,0.0,0.0,35,0.00,,---,0.00,VWS V13.01,2013-08-22 00:34:00,
2013-08-21 20:39:00,74.8,45.4,29.74,North,0,0.0,0.0,35,0.00,,---,0.00,VWS V13.01,2013-08-22 00:39:00,
2013-08-21 20:44:00,74.5,45.8,29.71,North,0,0.0,0.0,36,0.00,,---,0.00,VWS V13.01,2013-08-22 00:44:00,
2013-08-21 20:54:00,74.1,46.2,29.71,North,0,0.0,0.0,37,0.00,,---,0.00,VWS V13.01,2013-08-22 00:54:00,
2013-08-21 21:04:00,73.6,47.8,29.74,North,0,0.0,0.0,40,0.00,,---,0.00,VWS V13.01,2013-08-22 01:04:00,
2013-08-21 21:09:00,73.4,48.3,29.74,North,0,0.0,0.0,41,0.00,,---,0.00,VWS V13.01,2013-08-22 01:09:00,
2013-08-21 21:14:00,73.0,48.6,29.74,North,0,0.0,0.0,42,0.00,,---,0.00,VWS V13.01,2013-08-22 01:14:00,
2013-08-21 21:19:00,73.0,48.6,29.74,North,0,0.0,0.0,42,0.00,,---,0.00,VWS V13.01,2013-08-22 01:19:00,
2013-08-21 21:24:00,72.9,48.5,29.74,North,0,0.0,0.0,42,0.00,,---,0.00,VWS V13.01,2013-08-22 01:24:00,
2013-08-21 21:29:00,72.9,48.5,29.74,North,0,0.0,0.0,42,0.00,,---,0.00,VWS V13.01,2013-08-22 01:29:00,
2013-08-21 21:34:00,72.7,48.3,29.74,North,0,0.0,0.0,42,0.00,,---,0.00,VWS V13.01,2013-08-22 01:34:00,
2013-08-21 21:39:00,72.5,48.1,29.74,North,0,0.0,0.0,42,0.00,,---,0.00,VWS V13.01,2013-08-22 01:39:00,
2013-08-21 21:44:00,72.3,48.6,29.74,North,0,0.0,0.0,43,0.00,,---,0.00,VWS V13.01,2013-08-22 01:44:00,
2013-08-21 21:49:00,71.8,49.3,29.74,North,0,0.0,0.0,45,0.00,,---,0.00,VWS V13.01,2013-08-22 01:49:00,
2013-08-21 21:54:00,71.2,50.0,29.74,North,0,0.0,0.0,47,0.00,,---,0.00,VWS V13.01,2013-08-22 01:54:00,
2013-08-21 21:59:00,71.2,50.0,29.74,North,0,0.0,0.0,47,0.00,,---,0.00,VWS V13.01,2013-08-22 01:59:00,
2013-08-21 22:04:00,71.1,50.4,29.74,North,0,0.0,0.0,48,0.00,,---,0.00,VWS V13.01,2013-08-22 02:04:00,
2013-08-21 22:14:00,70.5,51.0,29.74,North,0,0.0,0.0,50,0.00,,---,0.00,VWS V13.01,2013-08-22 02:14:00,
2013-08-21 22:19:00,70.7,51.2,29.74,North,0,0.0,0.0,50,0.00,,---,0.00,VWS V13.01,2013-08-22 02:19:00,
2013-08-21 22:24:00,70.5,51.0,29.74,North,0,0.0,0.0,50,0.00,,---,0.00,VWS V13.01,2013-08-22 02:24:00,
2013-08-21 22:29:00,70.5,51.0,29.74,North,0,0.0,0.0,50,0.00,,---,0.00,VWS V13.01,2013-08-22 02:29:00,
2013-08-21 22:39:00,70.5,51.0,29.74,North,0,0.0,0.0,50,0.00,,---,0.00,VWS V13.01,2013-08-22 02:39:00,
2013-08-21 22:44:00,70.2,50.1,29.74,North,0,0.0,0.0,49,0.00,,---,0.00,VWS V13.01,2013-08-22 02:44:00,
2013-08-21 22:49:00,70.0,51.0,29.74,North,0,0.0,0.0,51,0.00,,---,0.00,VWS V13.01,2013-08-22 02:49:00,
2013-08-21 22:54:00,69.4,52.1,29.74,North,0,0.0,0.0,54,0.00,,---,0.00,VWS V13.01,2013-08-22 02:54:00,
2013-08-21 22:59:00,68.9,53.5,29.74,North,0,0.0,0.0,58,0.00,,---,0.00,VWS V13.01,2013-08-22 02:59:00,
2013-08-21 23:04:00,68.7,54.7,29.74,North,0,0.0,0.0,61,0.00,,---,0.00,VWS V13.01,2013-08-22 03:04:00,
2013-08-21 23:09:00,68.5,55.0,29.74,North,0,0.0,0.0,62,0.00,,---,0.00,VWS V13.01,2013-08-22 03:09:00,
2013-08-21 23:14:00,68.5,54.6,29.71,North,0,0.0,0.0,61,0.00,,---,0.00,VWS V13.01,2013-08-22 03:14:00,
2013-08-21 23:19:00,68.4,54.8,29.71,North,0,0.0,0.0,62,0.00,,---,0.00,VWS V13.01,2013-08-22 03:19:00,
2013-08-21 23:24:00,68.2,55.1,29.71,North,0,0.0,0.0,63,0.00,,---,0.00,VWS V13.01,2013-08-22 03:24:00,
2013-08-21 23:29:00,68.2,55.5,29.71,North,0,0.0,0.0,64,0.00,,---,0.00,VWS V13.01,2013-08-22 03:29:00,
2013-08-21 23:34:00,68.2,55.5,29.71,North,0,0.0,0.0,64,0.00,,---,0.00,VWS V13.01,2013-08-22 03:34:00,
2013-08-21 23:39:00,68.0,55.4,29.71,North,0,0.0,0.0,64,0.00,,---,0.00,VWS V13.01,2013-08-22 03:39:00,
2013-08-21 23:44:00,68.0,55.8,29.71,North,0,0.0,0.0,65,0.00,,---,0.00,VWS V13.01,2013-08-22 03:44:00,
2013-08-21 23:49:00,68.0,55.4,29.71,North,0,0.0,0.0,64,0.00,,---,0.00,VWS V13.01,2013-08-22 03:49:00,
2013-08-21 23:59:00,68.0,55.0,29.71,North,0,0.0,0.0,63,0.00,,---,0.00,VWS V13.01,2013-08-22 03:59:00,